createdAt,value
2024-01-27T00:00:16.369Z,4.10
2024-01-27T00:02:45.126Z,4.10
2024-01-27T00:05:13.604Z,4.10
2024-01-27T00:07:41.840Z,4.10
2024-01-27T00:10:10.634Z,4.00
2024-01-27T00:12:39.167Z,4.00
2024-01-27T00:15:10.021Z,4.00
2024-01-27T00:17:40.828Z,4.00
2024-01-27T00:20:10.149Z,4.00
2024-01-27T00:22:38.278Z,3.90
2024-01-27T00:25:07.385Z,3.90
2024-01-27T00:27:35.562Z,3.80
2024-01-27T00:30:03.784Z,3.80
2024-01-27T00:32:32.311Z,3.70
2024-01-27T00:35:01.889Z,3.70
2024-01-27T00:37:30.024Z,3.70
2024-01-27T00:39:58.143Z,3.80
2024-01-27T00:42:26.368Z,3.80
2024-01-27T00:44:54.652Z,3.80
2024-01-27T00:47:22.755Z,3.80
2024-01-27T00:49:51.642Z,3.80
2024-01-27T00:52:21.210Z,3.80
2024-01-27T00:54:49.355Z,3.80
2024-01-27T00:57:17.937Z,3.80
2024-01-27T00:59:47.193Z,3.80
2024-01-27T01:02:15.380Z,3.80
2024-01-27T01:04:43.740Z,3.70
2024-01-27T01:07:11.854Z,3.70
2024-01-27T01:09:41.401Z,3.70
2024-01-27T01:12:10.797Z,3.70
2024-01-27T01:14:39.028Z,3.70
2024-01-27T01:17:07.237Z,3.70
2024-01-27T01:19:35.513Z,3.70
2024-01-27T01:22:03.647Z,3.70
2024-01-27T01:24:32.750Z,3.70
2024-01-27T01:27:02.415Z,3.80
2024-01-27T01:29:30.844Z,3.80
2024-01-27T01:31:58.936Z,3.80
2024-01-27T01:34:27.169Z,3.80
2024-01-27T01:36:55.430Z,3.80
2024-01-27T01:39:23.967Z,3.80
2024-01-27T01:41:52.098Z,3.80
2024-01-27T01:44:22.397Z,3.80
2024-01-27T01:46:50.640Z,3.80
2024-01-27T01:49:18.902Z,3.80
2024-01-27T01:51:47.223Z,3.80
2024-01-27T01:54:15.318Z,3.80
2024-01-27T01:56:44.696Z,3.80
2024-01-27T01:59:12.826Z,3.80
2024-01-27T02:01:46.033Z,3.80
2024-01-27T02:04:14.600Z,3.80
2024-01-27T02:06:42.908Z,3.80
2024-01-27T02:09:11.541Z,3.80
2024-01-27T02:11:39.837Z,3.80
2024-01-27T02:14:10.148Z,3.70
2024-01-27T02:16:38.262Z,3.80
2024-01-27T02:19:07.939Z,3.80
2024-01-27T02:21:36.242Z,3.80
2024-01-27T02:24:04.557Z,3.80
2024-01-27T02:26:34.253Z,3.80
2024-01-27T02:29:02.381Z,3.80
2024-01-27T02:31:30.720Z,3.80
2024-01-27T02:33:58.985Z,3.80
2024-01-27T02:36:30.287Z,3.80
2024-01-27T02:38:58.441Z,3.80
2024-01-27T02:41:26.547Z,3.80
2024-01-27T02:43:56.016Z,3.80
2024-01-27T02:46:24.136Z,3.80
2024-01-27T02:48:52.510Z,3.80
2024-01-27T02:51:22.449Z,3.80
2024-01-27T02:53:50.978Z,3.80
2024-01-27T02:56:19.135Z,3.80
2024-01-27T02:58:47.574Z,3.90
2024-01-27T03:01:17.168Z,3.90
2024-01-27T03:03:45.483Z,3.90
2024-01-27T03:06:13.887Z,3.90
2024-01-27T03:08:42.015Z,3.90
2024-01-27T03:11:10.414Z,3.90
2024-01-27T03:13:38.610Z,3.90
2024-01-27T03:16:11.337Z,3.90
2024-01-27T03:18:41.107Z,3.90
2024-01-27T03:21:10.146Z,3.90
2024-01-27T03:23:38.299Z,3.80
2024-01-27T03:26:06.618Z,3.90
2024-01-27T03:28:34.850Z,3.90
2024-01-27T03:31:03.000Z,3.90
2024-01-27T03:33:31.993Z,3.80
2024-01-27T03:36:01.575Z,3.80
2024-01-27T03:38:29.727Z,3.80
2024-01-27T03:41:00.663Z,3.80
2024-01-27T03:43:28.789Z,3.80
2024-01-27T03:45:56.932Z,3.70
2024-01-27T03:48:26.103Z,3.70
2024-01-27T03:50:55.484Z,3.70
2024-01-27T03:53:25.030Z,3.60
2024-01-27T03:55:53.134Z,3.50
2024-01-27T03:58:21.365Z,3.40
2024-01-27T04:00:49.970Z,3.40
2024-01-27T04:03:18.326Z,3.30
2024-01-27T04:05:47.030Z,3.30
2024-01-27T04:08:15.413Z,3.30
2024-01-27T04:10:44.925Z,3.30
2024-01-27T04:13:13.063Z,3.30
2024-01-27T04:15:41.289Z,3.30
2024-01-27T04:18:10.956Z,3.30
2024-01-27T04:20:39.299Z,3.20
2024-01-27T04:23:07.467Z,3.10
2024-01-27T04:25:35.642Z,3.10
2024-01-27T04:28:05.584Z,3.10
2024-01-27T04:30:33.836Z,3.00
2024-01-27T04:33:02.287Z,3.00
2024-01-27T04:35:30.582Z,3.00
2024-01-27T04:37:59.225Z,3.00
2024-01-27T04:40:34.190Z,3.00
2024-01-27T04:43:01.463Z,3.00
2024-01-27T04:45:31.359Z,2.90
2024-01-27T04:48:01.932Z,2.90
2024-01-27T04:50:30.104Z,2.80
2024-01-27T04:52:58.241Z,2.80
2024-01-27T04:55:26.334Z,2.70
2024-01-27T04:57:54.682Z,2.70
2024-01-27T05:00:22.977Z,2.70
2024-01-27T05:02:52.546Z,2.60
2024-01-27T05:05:20.782Z,2.60
2024-01-27T05:07:49.173Z,2.60
2024-01-27T05:10:18.298Z,2.60
2024-01-27T05:12:46.408Z,2.60
2024-01-27T05:15:14.850Z,2.60
2024-01-27T05:17:43.042Z,2.50
2024-01-27T05:20:13.090Z,2.50
2024-01-27T05:22:41.159Z,2.50
2024-01-27T05:25:10.915Z,2.40
2024-01-27T05:27:39.689Z,2.40
2024-01-27T05:30:11.876Z,2.40
2024-01-27T05:32:40.108Z,2.40
2024-01-27T05:35:09.382Z,2.30
2024-01-27T05:37:40.202Z,2.40
2024-01-27T05:40:09.958Z,2.30
2024-01-27T05:42:38.665Z,2.30
2024-01-27T05:45:08.200Z,2.30
2024-01-27T05:47:36.388Z,2.20
2024-01-27T05:50:05.703Z,2.20
2024-01-27T05:52:33.839Z,2.20
2024-01-27T05:55:03.919Z,2.20
2024-01-27T05:57:32.202Z,2.10
2024-01-27T06:00:00.408Z,2.10
2024-01-27T06:02:28.502Z,2.10
2024-01-27T06:04:59.892Z,2.10
2024-01-27T06:07:28.142Z,2.10
2024-01-27T06:09:56.287Z,2.00
2024-01-27T06:12:26.374Z,2.00
2024-01-27T06:14:54.567Z,1.90
2024-01-27T06:17:22.747Z,1.90
2024-01-27T06:19:50.963Z,1.80
2024-01-27T06:22:19.243Z,1.80
2024-01-27T06:24:47.340Z,1.80
2024-01-27T06:27:15.412Z,1.80
2024-01-27T06:29:45.180Z,1.80
2024-01-27T06:32:13.859Z,1.80
2024-01-27T06:34:42.093Z,1.70
2024-01-27T06:37:10.217Z,1.70
2024-01-27T06:39:40.775Z,1.60
2024-01-27T06:42:08.905Z,1.60
2024-01-27T06:44:37.030Z,1.60
2024-01-27T06:47:06.641Z,1.50
2024-01-27T06:49:34.853Z,1.50
2024-01-27T06:52:03.044Z,1.60
2024-01-27T06:54:31.249Z,1.60
2024-01-27T06:57:01.740Z,1.60
2024-01-27T06:59:29.931Z,1.60
2024-01-27T07:01:58.088Z,1.70
2024-01-27T07:04:30.968Z,1.60
2024-01-27T07:06:59.162Z,1.60
2024-01-27T07:09:30.390Z,1.70
2024-01-27T07:11:58.555Z,1.70
2024-01-27T07:14:26.904Z,1.70
2024-01-27T07:16:55.075Z,1.60
2024-01-27T07:19:23.216Z,1.60
2024-01-27T07:21:53.127Z,1.70
2024-01-27T07:24:21.322Z,1.70
2024-01-27T07:26:54.514Z,1.70
2024-01-27T07:29:24.115Z,1.70
2024-01-27T07:31:52.647Z,1.70
2024-01-27T07:34:21.167Z,1.60
2024-01-27T07:36:53.522Z,1.60
2024-01-27T07:39:21.706Z,1.60
2024-01-27T07:41:52.888Z,1.70
2024-01-27T07:44:21.061Z,1.70
2024-01-27T07:46:49.181Z,1.80
2024-01-27T07:49:17.403Z,1.70
2024-01-27T07:51:45.631Z,1.80
2024-01-27T07:54:17.405Z,1.80
2024-01-27T07:56:45.542Z,1.70
2024-01-27T07:59:16.498Z,1.70
2024-01-27T08:01:44.680Z,1.80
2024-01-27T08:04:12.978Z,1.70
2024-01-27T08:06:49.019Z,1.70
2024-01-27T08:09:19.372Z,1.70
2024-01-27T08:11:52.750Z,1.70
2024-01-27T08:14:27.204Z,1.80
2024-01-27T08:16:58.005Z,1.80
2024-01-27T08:19:27.680Z,1.80
2024-01-27T08:21:56.010Z,1.90
2024-01-27T08:24:25.815Z,1.90
2024-01-27T08:26:54.031Z,2.00
2024-01-27T08:29:22.230Z,2.00
2024-01-27T08:31:50.406Z,2.00
2024-01-27T08:34:18.790Z,2.10
2024-01-27T08:36:47.320Z,2.10
2024-01-27T08:39:15.649Z,2.10
2024-01-27T08:41:49.748Z,2.10
2024-01-27T08:44:17.977Z,2.10
2024-01-27T08:46:46.275Z,2.10
2024-01-27T08:49:14.698Z,2.10
2024-01-27T08:51:42.984Z,2.20
2024-01-27T08:54:11.137Z,2.20
2024-01-27T08:56:42.133Z,2.20
2024-01-27T08:59:11.584Z,2.20
2024-01-27T09:01:39.805Z,2.20
2024-01-27T09:04:08.385Z,2.20
2024-01-27T09:06:36.579Z,2.20
2024-01-27T09:09:04.871Z,2.30
2024-01-27T09:11:35.110Z,2.30
2024-01-27T09:14:03.781Z,2.40
2024-01-27T09:16:33.510Z,2.40
2024-01-27T09:19:03.139Z,2.40
2024-01-27T09:21:33.683Z,2.50
2024-01-27T09:24:03.459Z,2.60
2024-01-27T09:26:31.961Z,2.60
2024-01-27T09:29:00.240Z,2.60
2024-01-27T09:31:29.315Z,2.70
2024-01-27T09:33:59.182Z,2.70
2024-01-27T09:36:27.567Z,2.80
2024-01-27T09:38:56.104Z,2.80
2024-01-27T09:41:24.381Z,2.90
2024-01-27T09:43:55.465Z,3.00
2024-01-27T09:46:23.699Z,3.10
2024-01-27T09:48:52.147Z,3.20
2024-01-27T09:51:22.353Z,3.20
2024-01-27T09:53:51.612Z,3.20
2024-01-27T09:56:21.584Z,3.30
2024-01-27T09:58:50.845Z,3.40
2024-01-27T10:01:20.242Z,3.50
2024-01-27T10:03:49.550Z,3.60
2024-01-27T10:06:18.295Z,3.70
2024-01-27T10:08:56.154Z,3.80
2024-01-27T10:11:25.815Z,3.80
2024-01-27T10:13:59.864Z,3.80
2024-01-27T10:16:29.731Z,4.00
2024-01-27T10:19:07.335Z,4.00
2024-01-27T10:21:35.900Z,4.00
2024-01-27T10:24:07.684Z,4.10
2024-01-27T10:26:36.319Z,4.10
2024-01-27T10:29:04.769Z,4.20
2024-01-27T10:31:34.381Z,4.20
2024-01-27T10:34:05.347Z,4.40
2024-01-27T10:36:43.287Z,4.40
2024-01-27T10:39:21.630Z,4.60
2024-01-27T10:41:50.773Z,4.70
2024-01-27T10:44:19.997Z,4.60
2024-01-27T10:46:51.280Z,4.60
2024-01-27T10:49:20.608Z,4.70
2024-01-27T10:51:55.803Z,4.80
2024-01-27T10:54:27.997Z,4.90
2024-01-27T10:56:58.561Z,5.10
2024-01-27T10:59:30.057Z,5.20
2024-01-27T11:01:58.866Z,5.30
2024-01-27T11:04:28.329Z,5.40
2024-01-27T11:06:58.899Z,5.40
2024-01-27T11:09:29.511Z,5.50
2024-01-27T11:11:57.984Z,5.60
2024-01-27T11:14:26.151Z,5.70
2024-01-27T11:16:57.793Z,5.80
2024-01-27T11:19:26.070Z,5.90
2024-01-27T11:22:03.168Z,5.90
2024-01-27T11:24:32.907Z,5.90
2024-01-27T11:27:05.425Z,5.90
2024-01-27T11:29:35.115Z,5.90
2024-01-27T11:32:04.219Z,6.00
2024-01-27T11:34:44.566Z,5.80
2024-01-27T11:37:14.307Z,5.90
2024-01-27T11:39:43.854Z,6.10
2024-01-27T11:42:14.543Z,6.20
2024-01-27T11:44:43.810Z,6.30
2024-01-27T11:47:17.654Z,6.40
2024-01-27T11:49:52.375Z,6.40
2024-01-27T11:52:20.627Z,6.60
2024-01-27T11:54:56.291Z,6.80
2024-01-27T11:57:24.722Z,7.00
2024-01-27T11:59:53.475Z,7.20
2024-01-27T12:02:21.831Z,7.30
2024-01-27T12:04:51.970Z,7.70
2024-01-27T12:07:21.428Z,8.30
2024-01-27T12:09:52.811Z,9.40
2024-01-27T12:12:21.157Z,11.00
2024-01-27T12:14:51.018Z,12.30
2024-01-27T12:17:19.906Z,13.00
2024-01-27T12:19:49.928Z,13.00
2024-01-27T12:22:24.914Z,12.20
2024-01-27T12:24:54.528Z,10.90
2024-01-27T12:27:24.268Z,10.10
2024-01-27T12:29:52.817Z,9.50
2024-01-27T12:32:21.152Z,9.10
2024-01-27T12:34:51.225Z,9.00
2024-01-27T12:37:19.508Z,9.30
2024-01-27T12:39:47.973Z,10.00
2024-01-27T12:42:18.077Z,11.20
2024-01-27T12:44:46.951Z,12.30
2024-01-27T12:47:15.642Z,12.70
2024-01-27T12:49:44.008Z,12.40
2024-01-27T12:52:12.264Z,11.70
2024-01-27T12:54:40.588Z,10.90
2024-01-27T12:57:10.105Z,10.20
2024-01-27T12:59:39.787Z,9.60
2024-01-27T13:02:08.453Z,9.30
2024-01-27T13:04:36.635Z,9.00
2024-01-27T13:07:04.931Z,9.00
2024-01-27T13:09:33.108Z,9.50
2024-01-27T13:12:01.321Z,9.80
2024-01-27T13:14:29.462Z,9.80
2024-01-27T13:17:00.475Z,9.50
2024-01-27T13:19:29.426Z,9.20
2024-01-27T13:21:57.554Z,8.90
2024-01-27T13:24:26.480Z,8.60
2024-01-27T13:26:54.714Z,8.40
2024-01-27T13:29:24.314Z,8.40
2024-01-27T13:31:52.589Z,8.40
2024-01-27T13:34:22.286Z,8.40
2024-01-27T13:36:50.704Z,8.30
2024-01-27T13:39:18.906Z,8.20
2024-01-27T13:41:47.081Z,8.10
2024-01-27T13:44:15.263Z,8.10
2024-01-27T13:46:43.425Z,8.00
2024-01-27T13:49:11.859Z,8.00
2024-01-27T13:51:41.527Z,8.00
2024-01-27T13:54:10.503Z,8.00
2024-01-27T13:56:39.251Z,7.90
2024-01-27T13:59:07.652Z,7.90
2024-01-27T14:01:35.812Z,7.90
2024-01-27T14:04:04.071Z,7.90
2024-01-27T14:06:32.489Z,7.90
2024-01-27T14:09:02.278Z,7.90
2024-01-27T14:11:30.910Z,7.90
2024-01-27T14:13:59.155Z,7.80
2024-01-27T14:16:27.297Z,7.80
2024-01-27T14:18:55.529Z,7.70
2024-01-27T14:21:23.974Z,7.60
2024-01-27T14:23:57.797Z,7.60
2024-01-27T14:26:27.445Z,7.50
2024-01-27T14:28:55.778Z,7.50
2024-01-27T14:31:24.425Z,7.40
2024-01-27T14:33:52.785Z,7.40
2024-01-27T14:36:24.693Z,7.30
2024-01-27T14:38:53.055Z,7.30
2024-01-27T14:41:21.193Z,7.30
2024-01-27T14:43:53.486Z,7.20
2024-01-27T14:46:25.091Z,7.20
2024-01-27T14:48:54.444Z,7.10
2024-01-27T14:51:23.648Z,7.10
2024-01-27T14:53:52.268Z,7.00
2024-01-27T14:56:20.396Z,6.90
2024-01-27T14:58:52.613Z,6.70
2024-01-27T15:01:20.770Z,6.60
2024-01-27T15:03:49.020Z,6.60
2024-01-27T15:06:17.516Z,6.50
2024-01-27T15:08:46.628Z,6.40
2024-01-27T15:11:14.738Z,6.40
2024-01-27T15:13:42.902Z,6.40
2024-01-27T15:16:12.484Z,6.40
2024-01-27T15:18:44.533Z,6.40
2024-01-27T15:21:13.884Z,6.30
2024-01-27T15:23:42.000Z,6.30
2024-01-27T15:26:12.353Z,6.20
2024-01-27T15:28:41.352Z,6.20
2024-01-27T15:31:15.372Z,6.10
2024-01-27T15:33:45.261Z,6.00
2024-01-27T15:36:13.574Z,5.80
2024-01-27T15:38:41.982Z,5.60
2024-01-27T15:41:11.455Z,5.40
2024-01-27T15:43:40.648Z,5.40
2024-01-27T15:46:08.941Z,5.20
2024-01-27T15:48:38.002Z,5.00
2024-01-27T15:51:07.807Z,5.00
2024-01-27T15:53:36.064Z,5.00
2024-01-27T15:56:04.308Z,4.90
2024-01-27T15:58:32.514Z,4.80
2024-01-27T16:01:00.788Z,4.80
2024-01-27T16:03:29.169Z,4.80
2024-01-27T16:05:57.657Z,4.70
2024-01-27T16:08:27.310Z,4.60
2024-01-27T16:10:58.473Z,4.50
2024-01-27T16:13:26.563Z,4.40
2024-01-27T16:15:54.792Z,4.50
2024-01-27T16:18:23.125Z,4.60
2024-01-27T16:20:51.755Z,4.60
2024-01-27T16:23:20.078Z,4.70
2024-01-27T16:25:50.088Z,4.60
2024-01-27T16:28:18.285Z,4.50
2024-01-27T16:30:46.583Z,4.50
2024-01-27T16:33:15.189Z,4.30
2024-01-27T16:35:43.482Z,4.20
2024-01-27T16:38:11.649Z,4.10
2024-01-27T16:40:39.853Z,4.10
2024-01-27T16:43:09.319Z,4.10
2024-01-27T16:45:37.508Z,4.10
2024-01-27T16:48:06.246Z,4.10
2024-01-27T16:50:34.591Z,4.10
2024-01-27T16:53:04.842Z,4.10
2024-01-27T16:55:36.032Z,4.10
2024-01-27T16:58:04.345Z,4.10
2024-01-27T17:00:34.788Z,4.00
2024-01-27T17:03:03.193Z,3.80
2024-01-27T17:05:34.221Z,3.70
2024-01-27T17:08:02.403Z,3.60
2024-01-27T17:10:30.491Z,3.50
2024-01-27T17:12:58.953Z,3.40
2024-01-27T17:15:27.685Z,3.40
2024-01-27T17:17:57.573Z,3.20
2024-01-27T17:20:25.973Z,3.10
2024-01-27T17:22:54.207Z,3.00
2024-01-27T17:25:22.782Z,3.00
2024-01-27T17:27:51.061Z,3.00
2024-01-27T17:30:19.509Z,2.90
2024-01-27T17:32:50.569Z,2.70
2024-01-27T17:35:20.097Z,2.80
2024-01-27T17:37:48.247Z,2.80
2024-01-27T17:40:17.478Z,2.90
2024-01-27T17:42:47.529Z,3.10
2024-01-27T17:45:16.382Z,3.20
2024-01-27T17:47:45.658Z,3.30
2024-01-27T17:50:14.170Z,3.50
2024-01-27T17:52:43.731Z,3.60
2024-01-27T17:55:13.788Z,3.70
2024-01-27T17:57:43.533Z,3.70
2024-01-27T18:00:17.906Z,3.70
2024-01-27T18:02:46.488Z,3.80
2024-01-27T18:05:14.594Z,3.80
2024-01-27T18:07:44.094Z,3.80
2024-01-27T18:10:12.316Z,3.80
2024-01-27T18:12:43.104Z,3.80
2024-01-27T18:15:12.379Z,3.80
2024-01-27T18:17:41.066Z,3.80
2024-01-27T18:20:11.471Z,3.80
2024-01-27T18:22:39.721Z,3.80
2024-01-27T18:25:09.933Z,3.70
2024-01-27T18:27:43.160Z,3.70
2024-01-27T18:30:12.732Z,3.60
2024-01-27T18:32:43.157Z,3.60
2024-01-27T18:35:12.233Z,3.50
2024-01-27T18:37:40.490Z,3.50
2024-01-27T18:40:11.017Z,3.50
2024-01-27T18:42:39.239Z,3.50
2024-01-27T18:45:08.445Z,3.40
2024-01-27T18:47:43.713Z,3.30
2024-01-27T18:50:12.636Z,3.20
2024-01-27T18:52:41.935Z,3.20
2024-01-27T18:55:13.043Z,3.20
2024-01-27T18:57:41.325Z,3.20
2024-01-27T19:00:10.992Z,3.20
2024-01-27T19:02:39.249Z,3.20
2024-01-27T19:05:09.260Z,3.30
2024-01-27T19:07:37.664Z,3.30
2024-01-27T19:10:07.143Z,3.30
2024-01-27T19:12:39.775Z,3.40
2024-01-27T19:15:08.793Z,3.40
2024-01-27T19:17:37.417Z,3.30
2024-01-27T19:20:06.549Z,3.30
2024-01-27T19:22:34.718Z,3.30
2024-01-27T19:25:02.837Z,3.30
2024-01-27T19:27:31.754Z,3.40
2024-01-27T19:30:01.406Z,3.40
2024-01-27T19:32:29.634Z,3.40
2024-01-27T19:35:00.733Z,3.40
2024-01-27T19:37:28.867Z,3.40
2024-01-27T19:39:56.945Z,3.40
2024-01-27T19:42:25.574Z,3.40
2024-01-27T19:44:53.768Z,3.40
2024-01-27T19:47:23.276Z,3.30
2024-01-27T19:49:51.471Z,3.30
2024-01-27T19:52:19.699Z,3.30
2024-01-27T19:54:48.073Z,3.30
2024-01-27T19:57:16.262Z,3.30
2024-01-27T19:59:44.502Z,3.30
2024-01-27T20:02:13.452Z,3.20
2024-01-27T20:04:44.124Z,3.20
2024-01-27T20:07:12.284Z,3.20
2024-01-27T20:09:41.487Z,3.20
2024-01-27T20:12:10.160Z,3.20
2024-01-27T20:14:40.448Z,3.10
2024-01-27T20:17:09.086Z,3.10
2024-01-27T20:19:38.855Z,3.10
2024-01-27T20:22:08.789Z,3.10
2024-01-27T20:24:37.204Z,3.10
2024-01-27T20:27:06.348Z,3.10
2024-01-27T20:29:34.825Z,3.20
2024-01-27T20:32:07.353Z,3.20
2024-01-27T20:34:36.239Z,3.20
2024-01-27T20:37:04.635Z,3.20
2024-01-27T20:39:34.204Z,3.20
2024-01-27T20:42:02.419Z,3.20
2024-01-27T20:44:30.587Z,3.10
2024-01-27T20:46:58.744Z,3.10
2024-01-27T20:49:27.624Z,3.10
2024-01-27T20:51:55.914Z,3.10
2024-01-27T20:54:24.137Z,3.10
2024-01-27T20:56:55.213Z,3.10
2024-01-27T20:59:23.334Z,3.10
2024-01-27T21:01:53.003Z,3.10
2024-01-27T21:04:26.264Z,3.10
2024-01-27T21:06:54.658Z,3.10
2024-01-27T21:09:22.877Z,3.10
2024-01-27T21:11:50.991Z,3.00
2024-01-27T21:14:20.519Z,3.00
2024-01-27T21:16:48.979Z,3.00
2024-01-27T21:19:17.206Z,3.00
2024-01-27T21:21:45.576Z,3.00
2024-01-27T21:24:15.349Z,3.00
2024-01-27T21:26:43.838Z,2.90
2024-01-27T21:29:12.576Z,2.90
2024-01-27T21:31:42.627Z,2.90
2024-01-27T21:34:10.840Z,2.90
2024-01-27T21:36:39.822Z,2.80
2024-01-27T21:39:08.101Z,2.80
2024-01-27T21:41:36.298Z,2.80
2024-01-27T21:44:04.765Z,2.80
2024-01-27T21:46:32.980Z,2.70
2024-01-27T21:49:02.625Z,2.80
2024-01-27T21:51:31.605Z,2.70
2024-01-27T21:53:59.862Z,2.60
2024-01-27T21:56:28.428Z,2.40
2024-01-27T21:58:59.214Z,2.40
2024-01-27T22:01:35.790Z,2.30
2024-01-27T22:04:05.803Z,2.30
2024-01-27T22:06:34.158Z,2.30
2024-01-27T22:09:02.685Z,2.30
2024-01-27T22:11:31.066Z,2.20
2024-01-27T22:13:59.319Z,2.20
2024-01-27T22:16:27.777Z,2.10
2024-01-27T22:18:56.124Z,2.00
2024-01-27T22:21:28.700Z,2.00
2024-01-27T22:23:56.950Z,1.90
2024-01-27T22:26:25.077Z,1.80
2024-01-27T22:28:53.171Z,1.70
2024-01-27T22:31:22.499Z,1.70
2024-01-27T22:33:50.835Z,1.70
2024-01-27T22:36:19.236Z,1.60
2024-01-27T22:38:48.662Z,1.50
2024-01-27T22:41:16.805Z,1.50
2024-01-27T22:43:44.972Z,1.50
2024-01-27T22:46:13.054Z,1.40
2024-01-27T22:48:41.434Z,1.30
2024-01-27T22:51:09.585Z,1.20
2024-01-27T22:53:37.715Z,1.20
2024-01-27T22:56:08.317Z,1.20
2024-01-27T22:58:36.477Z,1.20
2024-01-27T23:01:05.025Z,1.20
2024-01-27T23:03:33.311Z,1.20
2024-01-27T23:06:01.814Z,1.10
2024-01-27T23:08:30.007Z,1.10
2024-01-27T23:10:58.467Z,1.10
2024-01-27T23:13:27.989Z,1.10
2024-01-27T23:15:57.888Z,1.00
2024-01-27T23:18:26.153Z,0.90
2024-01-27T23:20:54.662Z,0.90
2024-01-27T23:23:22.767Z,0.90
2024-01-27T23:25:50.981Z,0.90
2024-01-27T23:28:19.083Z,0.90
2024-01-27T23:30:48.991Z,0.80
2024-01-27T23:33:19.239Z,0.80
2024-01-27T23:35:47.556Z,0.80
2024-01-27T23:38:15.845Z,0.70
2024-01-27T23:40:44.100Z,0.80
2024-01-27T23:43:12.372Z,0.70
2024-01-27T23:45:43.296Z,0.70
2024-01-27T23:48:13.131Z,0.60
2024-01-27T23:50:41.443Z,0.60
2024-01-27T23:53:10.276Z,0.60
2024-01-27T23:55:42.297Z,0.50
2024-01-27T23:58:11.162Z,0.40
